sensor_id;sensor_type;location;lat;lon;timestamp;P1;P2;P0
57623;PMS7003;43448;52.264;20.644;2024-03-06T00:00:00;20;15;
57623;PMS7003;43448;52.264;20.644;2024-03-06T00:10:00;16;14;
57623;PMS7003;43448;52.264;20.644;2024-03-06T00:20:00;17;14;
57623;PMS7003;43448;52.264;20.644;2024-03-06T00:30:00;12;12;
57623;PMS7003;43448;52.264;20.644;2024-03-06T00:40:00;18;16;
57623;PMS7003;43448;52.264;20.644;2024-03-06T00:50:00;18;14;
57623;PMS7003;43448;52.264;20.644;2024-03-06T01:00:00;16;15;
57623;PMS7003;43448;52.264;20.644;2024-03-06T01:10:00;22;15;
57623;PMS7003;43448;52.264;20.644;2024-03-06T01:20:00;20;16;
57623;PMS7003;43448;52.264;20.644;2024-03-06T01:30:00;15;11;
57623;PMS7003;43448;52.264;20.644;2024-03-06T01:40:00;19;15;
57623;PMS7003;43448;52.264;20.644;2024-03-06T01:50:01;17;15;
57623;PMS7003;43448;52.264;20.644;2024-03-06T02:00:00;20;15;
57623;PMS7003;43448;52.264;20.644;2024-03-06T02:10:00;17;15;
57623;PMS7003;43448;52.264;20.644;2024-03-06T02:20:01;19;17;
57623;PMS7003;43448;52.264;20.644;2024-03-06T02:30:00;20;16;
57623;PMS7003;43448;52.264;20.644;2024-03-06T02:40:00;19;15;
57623;PMS7003;43448;52.264;20.644;2024-03-06T02:50:00;18;14;
57623;PMS7003;43448;52.264;20.644;2024-03-06T03:00:00;21;16;
57623;PMS7003;43448;52.264;20.644;2024-03-06T03:10:00;22;16;
57623;PMS7003;43448;52.264;20.644;2024-03-06T03:20:00;19;17;
57623;PMS7003;43448;52.264;20.644;2024-03-06T03:30:00;18;17;
57623;PMS7003;43448;52.264;20.644;2024-03-06T03:40:00;14;14;
57623;PMS7003;43448;52.264;20.644;2024-03-06T03:50:00;17;14;
57623;PMS7003;43448;52.264;20.644;2024-03-06T04:00:00;19;17;
57623;PMS7003;43448;52.264;20.644;2024-03-06T04:10:00;18;14;
57623;PMS7003;43448;52.264;20.644;2024-03-06T04:20:00;17;16;
57623;PMS7003;43448;52.264;20.644;2024-03-06T04:30:00;16;14;
57623;PMS7003;43448;52.264;20.644;2024-03-06T04:40:00;18;15;
57623;PMS7003;43448;52.264;20.644;2024-03-06T04:50:00;18;17;
57623;PMS7003;43448;52.264;20.644;2024-03-06T05:00:00;15;14;
57623;PMS7003;43448;52.264;20.644;2024-03-06T05:10:00;14;13;
57623;PMS7003;43448;52.264;20.644;2024-03-06T05:20:00;19;17;
57623;PMS7003;43448;52.264;20.644;2024-03-06T05:30:00;22;17;
57623;PMS7003;43448;52.264;20.644;2024-03-06T05:40:00;26;20;
57623;PMS7003;43448;52.264;20.644;2024-03-06T05:50:00;21;16;
57623;PMS7003;43448;52.264;20.644;2024-03-06T06:00:00;19;14;
57623;PMS7003;43448;52.264;20.644;2024-03-06T06:10:00;22;15;
57623;PMS7003;43448;52.264;20.644;2024-03-06T06:20:00;18;14;
57623;PMS7003;43448;52.264;20.644;2024-03-06T06:30:00;21;14;
57623;PMS7003;43448;52.264;20.644;2024-03-06T06:40:00;17;14;
57623;PMS7003;43448;52.264;20.644;2024-03-06T06:50:00;18;14;
57623;PMS7003;43448;52.264;20.644;2024-03-06T07:00:00;16;14;
57623;PMS7003;43448;52.264;20.644;2024-03-06T07:10:00;13;13;
57623;PMS7003;43448;52.264;20.644;2024-03-06T07:20:00;14;11;
57623;PMS7003;43448;52.264;20.644;2024-03-06T07:30:01;16;13;
57623;PMS7003;43448;52.264;20.644;2024-03-06T07:40:00;17;13;
57623;PMS7003;43448;52.264;20.644;2024-03-06T07:50:00;15;14;
57623;PMS7003;43448;52.264;20.644;2024-03-06T08:00:01;14;11;
57623;PMS7003;43448;52.264;20.644;2024-03-06T08:10:00;15;12;
57623;PMS7003;43448;52.264;20.644;2024-03-06T08:20:00;14;13;
57623;PMS7003;43448;52.264;20.644;2024-03-06T08:30:00;12;10;
57623;PMS7003;43448;52.264;20.644;2024-03-06T08:40:00;12;11;
57623;PMS7003;43448;52.264;20.644;2024-03-06T08:50:00;10;10;
57623;PMS7003;43448;52.264;20.644;2024-03-06T09:00:00;11;11;
57623;PMS7003;43448;52.264;20.644;2024-03-06T09:10:00;16;12;
57623;PMS7003;43448;52.264;20.644;2024-03-06T09:20:00;12;11;
57623;PMS7003;43448;52.264;20.644;2024-03-06T09:30:00;10;9;
57623;PMS7003;43448;52.264;20.644;2024-03-06T09:40:00;15;12;
57623;PMS7003;43448;52.264;20.644;2024-03-06T09:50:00;17;11;
57623;PMS7003;43448;52.264;20.644;2024-03-06T10:00:00;15;11;
57623;PMS7003;43448;52.264;20.644;2024-03-06T10:10:00;14;13;
57623;PMS7003;43448;52.264;20.644;2024-03-06T10:20:00;13;11;
57623;PMS7003;43448;52.264;20.644;2024-03-06T10:30:01;9;9;
57623;PMS7003;43448;52.264;20.644;2024-03-06T10:40:02;12;12;
57623;PMS7003;43448;52.264;20.644;2024-03-06T10:50:00;10;10;
57623;PMS7003;43448;52.264;20.644;2024-03-06T11:00:00;14;10;
57623;PMS7003;43448;52.264;20.644;2024-03-06T11:10:00;11;11;
57623;PMS7003;43448;52.264;20.644;2024-03-06T11:20:08;14;10;
57623;PMS7003;43448;52.264;20.644;2024-03-06T11:30:05;11;10;
57623;PMS7003;43448;52.264;20.644;2024-03-06T11:40:00;12;12;
57623;PMS7003;43448;52.264;20.644;2024-03-06T11:50:00;13;11;
57623;PMS7003;43448;52.264;20.644;2024-03-06T12:00:02;11;9;
57623;PMS7003;43448;52.264;20.644;2024-03-06T12:10:00;12;9;
57623;PMS7003;43448;52.264;20.644;2024-03-06T12:20:00;10;10;
57623;PMS7003;43448;52.264;20.644;2024-03-06T12:30:00;9;9;
57623;PMS7003;43448;52.264;20.644;2024-03-06T12:40:00;11;10;
57623;PMS7003;43448;52.264;20.644;2024-03-06T12:50:00;8;7;
57623;PMS7003;43448;52.264;20.644;2024-03-06T13:00:00;9;9;
57623;PMS7003;43448;52.264;20.644;2024-03-06T13:10:00;11;10;
57623;PMS7003;43448;52.264;20.644;2024-03-06T13:20:00;9;9;
57623;PMS7003;43448;52.264;20.644;2024-03-06T13:30:00;9;8;
57623;PMS7003;43448;52.264;20.644;2024-03-06T13:40:00;9;8;
57623;PMS7003;43448;52.264;20.644;2024-03-06T13:50:00;8;7;
57623;PMS7003;43448;52.264;20.644;2024-03-06T14:00:01;10;9;
57623;PMS7003;43448;52.264;20.644;2024-03-06T14:10:00;12;8;
57623;PMS7003;43448;52.264;20.644;2024-03-06T14:20:00;13;6;
57623;PMS7003;43448;52.264;20.644;2024-03-06T14:30:00;11;10;
57623;PMS7003;43448;52.264;20.644;2024-03-06T14:40:00;8;6;
57623;PMS7003;43448;52.264;20.644;2024-03-06T14:50:00;10;9;
57623;PMS7003;43448;52.264;20.644;2024-03-06T15:00:00;10;9;
57623;PMS7003;43448;52.264;20.644;2024-03-06T15:10:00;9;8;
57623;PMS7003;43448;52.264;20.644;2024-03-06T15:20:00;9;8;
57623;PMS7003;43448;52.264;20.644;2024-03-06T15:30:00;9;8;
57623;PMS7003;43448;52.264;20.644;2024-03-06T15:40:00;8;6;
57623;PMS7003;43448;52.264;20.644;2024-03-06T15:50:00;7;6;
57623;PMS7003;43448;52.264;20.644;2024-03-06T16:00:00;8;7;
57623;PMS7003;43448;52.264;20.644;2024-03-06T16:10:00;8;8;
57623;PMS7003;43448;52.264;20.644;2024-03-06T16:20:00;8;6;
57623;PMS7003;43448;52.264;20.644;2024-03-06T16:30:02;8;8;
57623;PMS7003;43448;52.264;20.644;2024-03-06T16:40:00;8;8;
57623;PMS7003;43448;52.264;20.644;2024-03-06T16:50:01;11;11;
57623;PMS7003;43448;52.264;20.644;2024-03-06T17:00:00;5;5;
57623;PMS7003;43448;52.264;20.644;2024-03-06T17:10:00;15;8;
57623;PMS7003;43448;52.264;20.644;2024-03-06T17:20:00;12;10;
57623;PMS7003;43448;52.264;20.644;2024-03-06T17:30:00;13;11;
57623;PMS7003;43448;52.264;20.644;2024-03-06T17:40:00;17;10;
57623;PMS7003;43448;52.264;20.644;2024-03-06T17:50:00;14;12;
57623;PMS7003;43448;52.264;20.644;2024-03-06T18:00:00;17;14;
57623;PMS7003;43448;52.264;20.644;2024-03-06T18:10:00;15;13;
57623;PMS7003;43448;52.264;20.644;2024-03-06T18:20:00;14;14;
57623;PMS7003;43448;52.264;20.644;2024-03-06T18:30:01;19;15;
57623;PMS7003;43448;52.264;20.644;2024-03-06T18:40:00;15;14;
57623;PMS7003;43448;52.264;20.644;2024-03-06T18:50:00;15;14;
57623;PMS7003;43448;52.264;20.644;2024-03-06T19:00:00;18;15;
57623;PMS7003;43448;52.264;20.644;2024-03-06T19:10:00;18;15;
57623;PMS7003;43448;52.264;20.644;2024-03-06T19:20:00;22;20;
57623;PMS7003;43448;52.264;20.644;2024-03-06T19:30:00;18;15;
57623;PMS7003;43448;52.264;20.644;2024-03-06T19:40:00;21;17;
57623;PMS7003;43448;52.264;20.644;2024-03-06T19:50:08;21;19;
57623;PMS7003;43448;52.264;20.644;2024-03-06T20:00:00;22;17;
57623;PMS7003;43448;52.264;20.644;2024-03-06T20:10:00;24;17;
57623;PMS7003;43448;52.264;20.644;2024-03-06T20:20:00;21;20;
57623;PMS7003;43448;52.264;20.644;2024-03-06T20:30:00;23;19;
57623;PMS7003;43448;52.264;20.644;2024-03-06T20:40:00;20;18;
57623;PMS7003;43448;52.264;20.644;2024-03-06T20:50:00;19;19;
57623;PMS7003;43448;52.264;20.644;2024-03-06T21:00:00;28;20;
57623;PMS7003;43448;52.264;20.644;2024-03-06T21:10:00;23;19;
57623;PMS7003;43448;52.264;20.644;2024-03-06T21:20:00;25;22;
57623;PMS7003;43448;52.264;20.644;2024-03-06T21:30:00;26;20;
57623;PMS7003;43448;52.264;20.644;2024-03-06T21:40:01;17;17;
57623;PMS7003;43448;52.264;20.644;2024-03-06T21:50:00;25;22;
57623;PMS7003;43448;52.264;20.644;2024-03-06T22:00:00;25;22;
57623;PMS7003;43448;52.264;20.644;2024-03-06T22:10:00;22;20;
57623;PMS7003;43448;52.264;20.644;2024-03-06T22:20:00;24;21;
57623;PMS7003;43448;52.264;20.644;2024-03-06T22:30:00;23;21;
57623;PMS7003;43448;52.264;20.644;2024-03-06T22:40:00;22;19;
57623;PMS7003;43448;52.264;20.644;2024-03-06T22:50:00;26;23;
57623;PMS7003;43448;52.264;20.644;2024-03-06T23:00:00;22;20;
57623;PMS7003;43448;52.264;20.644;2024-03-06T23:10:00;26;22;
57623;PMS7003;43448;52.264;20.644;2024-03-06T23:20:00;25;22;
57623;PMS7003;43448;52.264;20.644;2024-03-06T23:30:00;24;18;
57623;PMS7003;43448;52.264;20.644;2024-03-06T23:40:01;25;21;
57623;PMS7003;43448;52.264;20.644;2024-03-06T23:50:00;24;21;
